PWSweather.com
Personal Weather Stations
Station Observations
MADWEATHER
MadeiraPT

MadeiraPT

Lat: 32.735, Lon: -17.194

Elevation: 1063

Station Type: Davis VantagePro2

Latest ConditionsUpdated 12:20:01 PM GMT Thursday, Jun 29, 2017
Currently Today's Max Today's Min Today's Average
Temperature 72.5°F22.5°C 73.3°F22.9°C 65.4°F18.6°C 68.3°F20.2°C
Dew Point 62.6°F17.0°C 65.5°F18.6°C 57.2°F14.0°C 61.8°F16.6°C
Winds 5.5 mph SSW8.9 kmh SSW 10.6 mph ENE17.1 kmh ENE - 2.6 mph 4.2 kmh
Wind Gusts 7.0 mph11.3 kmh 19.0 mph30.6 kmh - -
Humidity 71% 92% 58% 80%
Pressure 30.19 in1022.4 mb 30.19 in1022.4 mb 30.14 in1020.7 mb -
Hour Temp Dew Point Humidity Winds Wind Gusts Pressure Precip Precip Rate Daily Precip Total
12:20 PM 72.5°F22.5°C 62.6°F17.0°C 71% 5.5 mph SSW8.9 kmh SSW 7.0 mph11.3 kmh 30.19 in1022.4 mb - 0.00 in0.0 mm 0.00 in0.0 mm
12:10 PM 71.8°F22.1°C 63.5°F17.5°C 75% 3.9 mph SSW6.3 kmh SSW 7.0 mph11.3 kmh 30.19 in1022.4 mb - 0.00 in0.0 mm 0.00 in0.0 mm
12:00 PM 72.4°F22.4°C 63.6°F17.6°C 74% 6.0 mph SW9.7 kmh SW 7.0 mph11.3 kmh 30.19 in1022.4 mb - 0.00 in0.0 mm 0.00 in0.0 mm
11:50 AM 72.2°F22.3°C 63.5°F17.5°C 74% 4.1 mph SW6.6 kmh SW 6.0 mph9.7 kmh 30.19 in1022.4 mb - 0.00 in0.0 mm 0.00 in0.0 mm
11:40 AM 72.3°F22.4°C 64.3°F17.9°C 76% 4.0 mph SW6.4 kmh SW 7.0 mph11.3 kmh 30.18 in1022.0 mb - 0.00 in0.0 mm 0.00 in0.0 mm
11:30 AM 72.4°F22.4°C 65.1°F18.4°C 78% 2.4 mph SW3.9 kmh SW 3.0 mph4.8 kmh 30.19 in1022.4 mb - 0.00 in0.0 mm 0.00 in0.0 mm
11:20 AM 71.7°F22.1°C 65.2°F18.4°C 80% 3.0 mph S4.8 kmh S 6.0 mph9.7 kmh 30.19 in1022.4 mb - 0.00 in0.0 mm 0.00 in0.0 mm
11:10 AM 70.8°F21.6°C 64.3°F17.9°C 80% 3.9 mph S6.3 kmh S 6.0 mph9.7 kmh 30.18 in1022.0 mb - 0.00 in0.0 mm 0.00 in0.0 mm
11:00 AM 71.7°F22.1°C 65.2°F18.4°C 80% 4.0 mph S6.4 kmh S 7.0 mph11.3 kmh 30.18 in1022.0 mb - 0.00 in0.0 mm 0.00 in0.0 mm
10:50 AM 72.1°F22.3°C 65.2°F18.4°C 79% 4.1 mph S6.6 kmh S 5.0 mph8.0 kmh 30.18 in1022.0 mb - 0.00 in0.0 mm 0.00 in0.0 mm
10:40 AM 72.5°F22.5°C 64.8°F18.2°C 77% 5.4 mph SSE8.7 kmh SSE 7.0 mph11.3 kmh 30.18 in1022.0 mb - 0.00 in0.0 mm 0.00 in0.0 mm
10:30 AM 72.6°F22.6°C 65.3°F18.5°C 78% 2.7 mph SE4.3 kmh SE 7.0 mph11.3 kmh 30.18 in1022.0 mb - 0.00 in0.0 mm 0.00 in0.0 mm
10:20 AM 72.8°F22.7°C 65.5°F18.6°C 78% 2.7 mph SE4.3 kmh SE 4.0 mph6.4 kmh 30.18 in1022.0 mb - 0.00 in0.0 mm 0.00 in0.0 mm
10:10 AM 73.3°F22.9°C 64.9°F18.3°C 75% 6.2 mph SE10.0 kmh SE 7.0 mph11.3 kmh 30.18 in1022.0 mb - 0.00 in0.0 mm 0.00 in0.0 mm
10:00 AM 73.0°F22.8°C 59.2°F15.1°C 62% 6.0 mph ESE9.7 kmh ESE 11.0 mph17.7 kmh 30.17 in1021.7 mb - 0.00 in0.0 mm 0.00 in0.0 mm
09:50 AM 72.3°F22.4°C 58.1°F14.5°C 61% 5.4 mph E8.7 kmh E 11.0 mph17.7 kmh 30.17 in1021.7 mb - 0.00 in0.0 mm 0.00 in0.0 mm
09:40 AM 72.7°F22.6°C 58.5°F14.7°C 61% 6.4 mph NE10.3 kmh NE 13.0 mph20.9 kmh 30.17 in1021.7 mb - 0.00 in0.0 mm 0.00 in0.0 mm
09:30 AM 72.8°F22.7°C 57.2°F14.0°C 58% 3.4 mph E5.5 kmh E 5.0 mph8.0 kmh 30.16 in1021.3 mb - 0.00 in0.0 mm 0.00 in0.0 mm
09:20 AM 72.5°F22.5°C 57.8°F14.3°C 60% 3.1 mph E5.0 kmh E 4.0 mph6.4 kmh 30.16 in1021.3 mb - 0.00 in0.0 mm 0.00 in0.0 mm
09:10 AM 71.7°F22.1°C 57.5°F14.2°C 61% 3.6 mph E5.8 kmh E 6.0 mph9.7 kmh 30.16 in1021.3 mb - 0.00 in0.0 mm 0.00 in0.0 mm
09:00 AM 71.2°F21.8°C 59.7°F15.4°C 67% 4.2 mph E6.8 kmh E 7.0 mph11.3 kmh 30.16 in1021.3 mb - 0.00 in0.0 mm 0.00 in0.0 mm
08:50 AM 70.2°F21.2°C 57.4°F14.1°C 64% 5.0 mph E8.0 kmh E 8.0 mph12.9 kmh 30.15 in1021.0 mb - 0.00 in0.0 mm 0.00 in0.0 mm
08:40 AM 69.3°F20.7°C 57.5°F14.2°C 66% 10.6 mph ENE17.1 kmh ENE 16.0 mph25.7 kmh 30.15 in1021.0 mb - 0.00 in0.0 mm 0.00 in0.0 mm
08:30 AM 69.2°F20.7°C 57.8°F14.3°C 67% 8.1 mph E13.0 kmh E 19.0 mph30.6 kmh 30.15 in1021.0 mb - 0.00 in0.0 mm 0.00 in0.0 mm
08:20 AM 69.1°F20.6°C 58.1°F14.5°C 68% 6.9 mph ENE11.1 kmh ENE 11.0 mph17.7 kmh 30.15 in1021.0 mb - 0.00 in0.0 mm 0.00 in0.0 mm
08:10 AM 69.2°F20.7°C 60.9°F16.1°C 75% 7.8 mph E12.6 kmh E 12.0 mph19.3 kmh 30.15 in1021.0 mb - 0.00 in0.0 mm 0.00 in0.0 mm
08:00 AM 69.3°F20.7°C 62.5°F16.9°C 79% 4.0 mph ENE6.4 kmh ENE 5.0 mph8.0 kmh 30.15 in1021.0 mb - 0.00 in0.0 mm 0.00 in0.0 mm
07:50 AM 69.0°F20.6°C 61.9°F16.6°C 78% 7.0 mph E11.3 kmh E 16.0 mph25.7 kmh 30.16 in1021.3 mb - 0.00 in0.0 mm 0.00 in0.0 mm
07:40 AM 68.4°F20.2°C 59.0°F15.0°C 72% 2.9 mph E4.7 kmh E 10.0 mph16.1 kmh 30.16 in1021.3 mb - 0.00 in0.0 mm 0.00 in0.0 mm
07:30 AM 68.2°F20.1°C 60.0°F15.6°C 75% 2.9 mph NE4.7 kmh NE 9.0 mph14.5 kmh 30.15 in1021.0 mb - 0.00 in0.0 mm 0.00 in0.0 mm
07:20 AM 67.4°F19.7°C 58.1°F14.5°C 72% 5.6 mph NE9.0 kmh NE 7.0 mph11.3 kmh 30.15 in1021.0 mb - 0.00 in0.0 mm 0.00 in0.0 mm
07:10 AM 66.8°F19.3°C 58.3°F14.6°C 74% 6.7 mph E10.8 kmh E 12.0 mph19.3 kmh 30.15 in1021.0 mb - 0.00 in0.0 mm 0.00 in0.0 mm
07:00 AM 66.9°F19.4°C 59.1°F15.1°C 76% 6.7 mph ESE10.8 kmh ESE 10.0 mph16.1 kmh 30.15 in1021.0 mb - 0.00 in0.0 mm 0.00 in0.0 mm
06:50 AM 67.0°F19.4°C 59.2°F15.1°C 76% 6.2 mph SSE10.0 kmh SSE 6.0 mph9.7 kmh 30.15 in1021.0 mb - 0.00 in0.0 mm 0.00 in0.0 mm
06:40 AM 67.0°F19.4°C 59.1°F15.1°C 76% 1.7 mph SSE2.7 kmh SSE 4.0 mph6.4 kmh 30.15 in1021.0 mb - 0.00 in0.0 mm 0.00 in0.0 mm
06:30 AM 67.0°F19.4°C 59.9°F15.5°C 78% 4.7 mph SSE7.6 kmh SSE 7.0 mph11.3 kmh 30.14 in1020.7 mb - 0.00 in0.0 mm 0.00 in0.0 mm
06:20 AM 67.0°F19.4°C 60.6°F15.9°C 80% Calm Calm -- 30.15 in1021.0 mb - 0.00 in0.0 mm 0.00 in0.0 mm
06:10 AM 66.9°F19.4°C 60.9°F16.1°C 81% Calm Calm -- 30.15 in1021.0 mb - 0.00 in0.0 mm 0.00 in0.0 mm
06:00 AM 66.7°F19.3°C 61.4°F16.3°C 83% 2.6 mph SSE4.2 kmh SSE 3.0 mph4.8 kmh 30.15 in1021.0 mb - 0.00 in0.0 mm 0.00 in0.0 mm
05:50 AM 66.7°F19.3°C 62.0°F16.7°C 85% 2.4 mph SSE3.9 kmh SSE 4.0 mph6.4 kmh 30.15 in1021.0 mb - 0.00 in0.0 mm 0.00 in0.0 mm
05:40 AM 66.7°F19.3°C 62.4°F16.9°C 86% Calm Calm -- 30.14 in1020.7 mb - 0.00 in0.0 mm 0.00 in0.0 mm
05:30 AM 66.7°F19.3°C 62.4°F16.9°C 86% Calm Calm -- 30.15 in1021.0 mb - 0.00 in0.0 mm 0.00 in0.0 mm
05:20 AM 66.4°F19.1°C 62.1°F16.7°C 86% 0.5 mph SSE0.8 kmh SSE -- 30.15 in1021.0 mb - 0.00 in0.0 mm 0.00 in0.0 mm
05:10 AM 66.3°F19.1°C 62.3°F16.8°C 87% 0.8 mph SSE1.3 kmh SSE 3.0 mph4.8 kmh 30.15 in1021.0 mb - 0.00 in0.0 mm 0.00 in0.0 mm
05:00 AM 66.4°F19.1°C 62.4°F16.9°C 87% Calm Calm -- 30.15 in1021.0 mb - 0.00 in0.0 mm 0.00 in0.0 mm
04:50 AM 66.5°F19.2°C 62.5°F16.9°C 87% Calm Calm -- 30.15 in1021.0 mb - 0.00 in0.0 mm 0.00 in0.0 mm
04:40 AM 66.4°F19.1°C 62.4°F16.9°C 87% 0.2 mph SSE0.3 kmh SSE 1.0 mph1.6 kmh 30.15 in1021.0 mb - 0.00 in0.0 mm 0.00 in0.0 mm
04:30 AM 66.4°F19.1°C 62.1°F16.7°C 86% Calm Calm 1.0 mph1.6 kmh 30.15 in1021.0 mb - 0.00 in0.0 mm 0.00 in0.0 mm
04:20 AM 66.4°F19.1°C 62.1°F16.7°C 86% Calm Calm -- 30.14 in1020.7 mb - 0.00 in0.0 mm 0.00 in0.0 mm
04:10 AM 66.5°F19.2°C 62.2°F16.8°C 86% Calm Calm -- 30.14 in1020.7 mb - 0.00 in0.0 mm 0.00 in0.0 mm
04:00 AM 66.3°F19.1°C 62.0°F16.7°C 86% Calm Calm -- 30.14 in1020.7 mb - 0.00 in0.0 mm 0.00 in0.0 mm
03:50 AM 66.3°F19.1°C 62.3°F16.8°C 87% 1.1 mph SSE1.8 kmh SSE 3.0 mph4.8 kmh 30.14 in1020.7 mb - 0.00 in0.0 mm 0.00 in0.0 mm
03:40 AM 66.4°F19.1°C 62.4°F16.9°C 87% 2.1 mph SSE3.4 kmh SSE 3.0 mph4.8 kmh 30.14 in1020.7 mb - 0.00 in0.0 mm 0.00 in0.0 mm
03:30 AM 66.2°F19.0°C 62.6°F17.0°C 88% 0.5 mph SSE0.8 kmh SSE 1.0 mph1.6 kmh 30.14 in1020.7 mb - 0.00 in0.0 mm 0.00 in0.0 mm
03:20 AM 66.2°F19.0°C 62.5°F16.9°C 88% 0.6 mph SSE1.0 kmh SSE 3.0 mph4.8 kmh 30.15 in1021.0 mb - 0.00 in0.0 mm 0.00 in0.0 mm
03:10 AM 66.2°F19.0°C 62.5°F16.9°C 88% Calm Calm -- 30.15 in1021.0 mb - 0.00 in0.0 mm 0.00 in0.0 mm
03:00 AM 66.2°F19.0°C 62.5°F16.9°C 88% Calm Calm -- 30.15 in1021.0 mb - 0.00 in0.0 mm 0.00 in0.0 mm
02:50 AM 66.2°F19.0°C 62.6°F17.0°C 88% 0.3 mph SSE0.5 kmh SSE 1.0 mph1.6 kmh 30.15 in1021.0 mb - 0.00 in0.0 mm 0.00 in0.0 mm
02:40 AM 66.3°F19.1°C 62.6°F17.0°C 88% Calm Calm -- 30.15 in1021.0 mb - 0.00 in0.0 mm 0.00 in0.0 mm
02:30 AM 66.3°F19.1°C 62.6°F17.0°C 88% Calm Calm -- 30.15 in1021.0 mb - 0.00 in0.0 mm 0.00 in0.0 mm
02:20 AM 66.5°F19.2°C 63.1°F17.3°C 89% Calm Calm -- 30.15 in1021.0 mb - 0.00 in0.0 mm 0.00 in0.0 mm
02:10 AM 66.4°F19.1°C 63.1°F17.3°C 89% 2.1 mph SSE3.4 kmh SSE 3.0 mph4.8 kmh 30.16 in1021.3 mb - 0.00 in0.0 mm 0.00 in0.0 mm
02:00 AM 66.2°F19.0°C 62.9°F17.2°C 89% 0.3 mph SSE0.5 kmh SSE 1.0 mph1.6 kmh 30.16 in1021.3 mb - 0.00 in0.0 mm 0.00 in0.0 mm
01:50 AM 66.0°F18.9°C 63.0°F17.2°C 90% 0.1 mph SSE0.2 kmh SSE 2.0 mph3.2 kmh 30.16 in1021.3 mb - 0.00 in0.0 mm 0.00 in0.0 mm
01:40 AM 65.8°F18.8°C 62.8°F17.1°C 90% 0.1 mph SSE0.2 kmh SSE 2.0 mph3.2 kmh 30.16 in1021.3 mb - 0.00 in0.0 mm 0.00 in0.0 mm
01:30 AM 65.8°F18.8°C 62.8°F17.1°C 90% Calm Calm -- 30.16 in1021.3 mb - 0.00 in0.0 mm 0.00 in0.0 mm
01:20 AM 65.7°F18.7°C 62.7°F17.1°C 90% 0.6 mph SSE1.0 kmh SSE 1.0 mph1.6 kmh 30.16 in1021.3 mb - 0.00 in0.0 mm 0.00 in0.0 mm
01:10 AM 65.7°F18.7°C 62.7°F17.1°C 90% Calm Calm -- 30.17 in1021.7 mb - 0.00 in0.0 mm 0.00 in0.0 mm
01:00 AM 65.6°F18.7°C 62.9°F17.2°C 91% Calm Calm -- 30.17 in1021.7 mb - 0.00 in0.0 mm 0.00 in0.0 mm
12:50 AM 65.4°F18.6°C 62.7°F17.1°C 91% Calm Calm -- 30.17 in1021.7 mb - 0.00 in0.0 mm 0.00 in0.0 mm
12:40 AM 65.4°F18.6°C 62.7°F17.1°C 91% 0.2 mph SSE0.3 kmh SSE -- 30.17 in1021.7 mb - 0.00 in0.0 mm 0.00 in0.0 mm
12:30 AM 65.4°F18.6°C 63.0°F17.2°C 92% Calm Calm -- 30.17 in1021.7 mb - 0.00 in0.0 mm 0.00 in0.0 mm
12:20 AM 65.6°F18.7°C 63.2°F17.3°C 92% 2.4 mph SSE3.9 kmh SSE 3.0 mph4.8 kmh 30.18 in1022.0 mb - 0.00 in0.0 mm 0.00 in0.0 mm
12:10 AM 65.8°F18.8°C 63.1°F17.3°C 91% 0.9 mph SSE1.4 kmh SSE 3.0 mph4.8 kmh 30.18 in1022.0 mb - 0.00 in0.0 mm 0.00 in0.0 mm
12:00 AM 65.8°F18.8°C 63.1°F17.3°C 91% 0.6 mph SSE1.0 kmh SSE 1.0 mph1.6 kmh 30.18 in1022.0 mb - 0.00 in0.0 mm 0.00 in0.0 mm